• Join FlightAware (Why Join?)
  • Login
  • US Flag 
05:32PM EST


 

Airport Tracker/Info


-or-


 

Live Flight TrackerFlight Track Log ✈ LBQ792 ✈ 07-May-2013 ✈ KIAG - KAGC

Flight Track Log - Related Links

Times and Time Zones

All times are in EDT time to prevent confusion due to time zone crossing. See the LBQ792 flight status page for this flight to view local times or setup timezone preferences in your user account.

Time Position Orientation Groundspeed Altitude Reporting Facility
EDT Latitude Longitude Course Direction KTS MPH feet Rate Location/Type
11:21PM 43.0114 -78.9422 192° South 159 183 5,500  Level Cleveland Center
11:22PM 42.9675 -78.9489 186° South 182 209 6,800 1,380 Climbing Cleveland Center
11:23PM 42.9156 -78.9589 188° South 177 204 8,300 1,320 Climbing Cleveland Center
11:24PM 42.8700 -78.9714 191° South 177 204 9,500 960 Climbing Cleveland Center
11:25PM 42.8181 -78.9811 188° South 188 216 10,300 1,140 Climbing Cleveland Center
11:26PM 42.7703 -78.9908 188° South 188 216 11,800 840 Climbing Cleveland Center
11:27PM 42.7161 -79.0036 190° South 198 228 12,000 60 Climbing Cleveland Center
11:28PM 42.6497 -79.0164 188° South 221 254 12,000 480 Level Cleveland Center
11:29PM 42.5875 -79.0322 191° South 237 273 13,000 1,140 Climbing Cleveland Center
11:30PM 42.5314 -79.0447 189° South 224 258 14,300 1,320 Climbing Cleveland Center
11:31PM 42.4772 -79.0575 190° South 211 243 15,700 1,200 Climbing Cleveland Center
11:32PM 42.4169 -79.0728 191° South 204 235 16,800 1,020 Climbing Cleveland Center
11:33PM 42.3650 -79.0825 188° South 197 227 17,800 900 Climbing Cleveland Center
11:34PM 42.3131 -79.0922 188° South 202 232 18,600 900 Climbing Cleveland Center
11:35PM 42.2569 -79.1075 191° South 202 232 19,600 660 Climbing Cleveland Center
11:36PM 42.2008 -79.1200 189° South 202 232 20,000 180 Climbing Cleveland Center
11:37PM 42.1344 -79.1439 195° South 216 249 20,000  Level Cleveland Center
11:38PM 42.0681 -79.1706 197° South 241 277 20,000  Level Cleveland Center
11:39PM 41.9975 -79.1917 193° South 253 291 20,000  Level Cleveland Center
11:40PM 41.9269 -79.2183 196° South 264 304 20,000  Level Cleveland Center
11:41PM 41.8606 -79.2450 197° South 259 298 20,000  Level Cleveland Center
11:42PM 41.7900 -79.2714 196° South 259 298 20,000  Level Cleveland Center
11:43PM 41.7172 -79.2953 194° South 264 304 20,000  Level Cleveland Center
11:44PM 41.6486 -79.3217 196° South 264 304 20,000  Level Cleveland Center
11:45PM 41.5781 -79.3453 194° South 264 304 20,000  Level Cleveland Center
11:46PM 41.5075 -79.3742 197° South 259 298 20,000 -240 Level Cleveland Center
11:47PM 41.4328 -79.3978 193° South 259 298 19,600 -780 Descending Cleveland Center
11:48PM 41.3475 -79.4297 196° South 281 323 18,500 -960 Descending Cleveland Center
11:49PM 41.2667 -79.4589 195° South 292 336 17,700 -900 Descending Cleveland Center
11:50PM 41.1878 -79.4878 195° South 297 342 16,700 -1,200 Descending Cleveland Center
11:51PM 41.1086 -79.5167 195° South 297 342 15,400 -1,380 Descending Cleveland Center
11:52PM 41.0358 -79.5397 193° South 297 342 14,000 -1,500 Descending Cleveland Center
11:53PM 40.9633 -79.5658 195° South 285 328 12,400 -1,500 Descending Cleveland Center
11:54PM 40.8906 -79.6081 204° Southwest 280 322 11,000 -1,500 Descending Cleveland Center
11:55PM 40.8200 -79.6503 204° Southwest 285 328 9,500 -1,500 Descending Cleveland Center
11:56PM 40.7517 -79.6922 205° Southwest 285 328 8,100 -1,380 Descending Cleveland Center
11:57PM 40.6831 -79.7344 205° Southwest 280 322 6,800 -1,380 Descending Cleveland Center
11:58PM 40.6147 -79.7761 205° Southwest 280 322 5,400 -1,440 Descending Cleveland Center
11:59PM 40.5503 -79.8153 205° Southwest 280 322 4,000 -1,260 Descending Cleveland Center
12:00AM 40.4881 -79.8542 205° Southwest 269 310 2,900 -600 Descending Cleveland Center
12:01AM 40.4278 -79.8847 201° Southwest 253 291 2,900  Level Cleveland Center
12:03AM 40.3500 -79.9167 270° West  Level FlightAware Approximate
12:10AM 40.3544 -79.9302 270° West  Level Estimated
12:11AM 40.3544 -79.9302 270° West  Level Estimated
12:12AM 40.3544 -79.9302 270° West  Level Estimated